Time,TemperatureF,DewpointF,PressureIn,WindDirection,WindDirectionDegrees,WindSpeedMPH,WindSpeedGustMPH,Humidity,HourlyPrecipIn,Conditions,Clouds,dailyrainin,SoftwareType,DateUTC
2013-03-20 00:02:00,45.0,-99.9,29.62,SE,129,4.0,6.0,-999,-99.99,,,-99.99,,2013-03-20 07:02:00,
2013-03-20 00:12:00,44.0,-99.9,29.61,ESE,121,5.0,7.0,-999,-99.99,,,-99.99,,2013-03-20 07:12:00,
2013-03-20 00:22:00,44.0,-99.9,29.60,ESE,117,7.0,9.0,-999,-99.99,,,-99.99,,2013-03-20 07:22:00,
2013-03-20 00:32:00,44.0,-99.9,29.60,SE,145,5.0,9.0,-999,-99.99,,,-99.99,,2013-03-20 07:32:00,
2013-03-20 00:42:00,44.0,-99.9,29.61,SSW,200,5.0,8.0,-999,-99.99,,,-99.99,,2013-03-20 07:42:00,
2013-03-20 00:52:00,44.0,-99.9,29.60,SE,127,6.0,7.0,-999,-99.99,,,-99.99,,2013-03-20 07:52:00,
2013-03-20 01:02:00,44.0,-99.9,29.60,SE,133,6.0,8.0,-999,-99.99,,,-99.99,,2013-03-20 08:02:00,
2013-03-20 01:13:00,45.0,-99.9,29.59,ESE,114,4.0,8.0,-999,-99.99,,,-99.99,,2013-03-20 08:13:00,
2013-03-20 01:22:00,44.0,-99.9,29.58,SE,125,5.0,10.0,-999,-99.99,,,-99.99,,2013-03-20 08:22:00,
2013-03-20 01:32:00,45.0,-99.9,29.57,ESE,108,12.0,18.0,-999,-99.99,,,-99.99,,2013-03-20 08:32:00,
2013-03-20 01:43:00,45.0,-99.9,29.57,ESE,120,9.0,12.0,-999,-99.99,,,-99.99,,2013-03-20 08:43:00,
2013-03-20 01:52:00,45.0,-99.9,29.57,SE,130,8.0,14.0,-999,-99.99,,,-99.99,,2013-03-20 08:52:00,
2013-03-20 02:02:00,45.0,-99.9,29.56,SE,136,7.0,11.0,-999,-99.99,,,-99.99,,2013-03-20 09:02:00,
2013-03-20 02:12:00,45.0,-99.9,29.55,SE,126,8.0,15.0,-999,-99.99,,,-99.99,,2013-03-20 09:12:00,
2013-03-20 02:22:00,45.0,-99.9,29.54,ESE,106,10.0,14.0,-999,-99.99,,,-99.99,,2013-03-20 09:22:00,
2013-03-20 02:33:00,46.0,-99.9,29.54,ESE,118,8.0,16.0,-999,-99.99,,,-99.99,,2013-03-20 09:33:00,
2013-03-20 02:43:00,46.0,-99.9,29.53,SE,126,8.0,15.0,-999,-99.99,,,-99.99,,2013-03-20 09:43:00,
2013-03-20 02:53:00,46.0,-99.9,29.53,SE,135,8.0,12.0,-999,-99.99,,,-99.99,,2013-03-20 09:53:00,
2013-03-20 03:03:00,47.0,-99.9,29.52,SE,133,12.0,17.0,-999,-99.99,,,-99.99,,2013-03-20 10:03:00,
2013-03-20 03:13:00,48.0,-99.9,29.51,SE,127,14.0,18.0,-999,-99.99,,,-99.99,,2013-03-20 10:13:00,
2013-03-20 03:23:00,48.0,-99.9,29.50,SE,135,12.0,15.0,-999,-99.99,,,-99.99,,2013-03-20 10:23:00,
2013-03-20 03:33:00,47.0,-99.9,29.50,SE,127,7.0,13.0,-999,-99.99,,,-99.99,,2013-03-20 10:33:00,
2013-03-20 03:43:00,47.0,-99.9,29.50,SE,140,9.0,12.0,-999,-99.99,,,-99.99,,2013-03-20 10:43:00,
2013-03-20 03:53:00,47.0,-99.9,29.49,SE,139,6.0,10.0,-999,-99.99,,,-99.99,,2013-03-20 10:53:00,
2013-03-20 04:03:00,47.0,-99.9,29.49,SSE,148,7.0,11.0,-999,-99.99,,,-99.99,,2013-03-20 11:03:00,
2013-03-20 04:12:00,47.0,-99.9,29.49,ESE,113,4.0,10.0,-999,-99.99,,,-99.99,,2013-03-20 11:12:00,
2013-03-20 04:23:00,47.0,-99.9,29.48,ESE,116,5.0,8.0,-999,-99.99,,,-99.99,,2013-03-20 11:23:00,
2013-03-20 04:32:00,47.0,-99.9,29.48,ESE,114,5.0,9.0,-999,-99.99,,,-99.99,,2013-03-20 11:32:00,
2013-03-20 04:43:00,47.0,-99.9,29.48,ESE,103,6.0,9.0,-999,-99.99,,,-99.99,,2013-03-20 11:43:00,
2013-03-20 04:52:00,47.0,-99.9,29.47,ESE,108,5.0,9.0,-999,-99.99,,,-99.99,,2013-03-20 11:52:00,
2013-03-20 05:02:00,47.0,-99.9,29.46,ESE,106,7.0,9.0,-999,-99.99,,,-99.99,,2013-03-20 12:02:00,
2013-03-20 05:13:00,47.0,-99.9,29.45,ESE,103,8.0,10.0,-999,-99.99,,,-99.99,,2013-03-20 12:13:00,
2013-03-20 05:22:00,47.0,-99.9,29.45,ESE,110,7.0,10.0,-999,-99.99,,,-99.99,,2013-03-20 12:22:00,
2013-03-20 05:33:00,47.0,-99.9,29.44,ESE,103,6.0,9.0,-999,-99.99,,,-99.99,,2013-03-20 12:33:00,
2013-03-20 05:43:00,47.0,-99.9,29.43,ESE,107,7.0,10.0,-999,-99.99,,,-99.99,,2013-03-20 12:43:00,
2013-03-20 05:53:00,47.0,-99.9,29.44,ESE,115,7.0,11.0,-999,-99.99,,,-99.99,,2013-03-20 12:53:00,
2013-03-20 06:03:00,47.0,-99.9,29.43,SE,125,7.0,10.0,-999,-99.99,,,-99.99,,2013-03-20 13:03:00,
2013-03-20 06:12:00,48.0,-99.9,29.43,ESE,123,7.0,11.0,-999,-99.99,,,-99.99,,2013-03-20 13:12:00,
2013-03-20 06:22:00,48.0,-99.9,29.42,ESE,121,5.0,12.0,-999,-99.99,,,-99.99,,2013-03-20 13:22:00,
2013-03-20 06:32:00,47.0,-99.9,29.42,ESE,114,9.0,13.0,-999,-99.99,,,-99.99,,2013-03-20 13:32:00,
2013-03-20 06:43:00,48.0,-99.9,29.41,ESE,113,8.0,13.0,-999,-99.99,,,-99.99,,2013-03-20 13:43:00,
2013-03-20 06:53:00,48.0,-99.9,29.41,ESE,110,10.0,15.0,-999,-99.99,,,-99.99,,2013-03-20 13:53:00,
2013-03-20 07:03:00,48.0,-99.9,29.40,ESE,110,10.0,16.0,-999,-99.99,,,-99.99,,2013-03-20 14:03:00,
2013-03-20 07:12:00,48.0,-99.9,29.40,ESE,121,10.0,17.0,-999,-99.99,,,-99.99,,2013-03-20 14:12:00,
2013-03-20 07:23:00,48.0,-99.9,29.40,ESE,122,9.0,17.0,-999,-99.99,,,-99.99,,2013-03-20 14:23:00,
2013-03-20 07:34:00,49.0,-99.9,29.39,SE,131,10.0,15.0,-999,-99.99,,,-99.99,,2013-03-20 14:34:00,
2013-03-20 07:43:00,49.0,-99.9,29.39,ESE,123,9.0,13.0,-999,-99.99,,,-99.99,,2013-03-20 14:43:00,
2013-03-20 07:53:00,49.0,-99.9,29.40,SE,127,11.0,15.0,-999,-99.99,,,-99.99,,2013-03-20 14:53:00,
2013-03-20 08:03:00,49.0,-99.9,29.40,SE,126,8.0,13.0,-999,-99.99,,,-99.99,,2013-03-20 15:03:00,
2013-03-20 08:13:00,49.0,-99.9,29.40,SE,145,12.0,18.0,-999,-99.99,,,-99.99,,2013-03-20 15:13:00,
2013-03-20 08:22:00,50.0,-99.9,29.40,SE,138,14.0,19.0,-999,-99.99,,,-99.99,,2013-03-20 15:22:00,
2013-03-20 08:34:00,51.0,-99.9,29.40,SE,144,13.0,19.0,-999,-99.99,,,-99.99,,2013-03-20 15:34:00,
2013-03-20 08:44:00,51.0,-99.9,29.40,SE,136,13.0,16.0,-999,-99.99,,,-99.99,,2013-03-20 15:44:00,
2013-03-20 08:53:00,51.0,-99.9,29.41,SSE,154,12.0,18.0,-999,-99.99,,,-99.99,,2013-03-20 15:53:00,
2013-03-20 09:03:00,51.0,-99.9,29.41,SE,144,10.0,19.0,-999,-99.99,,,-99.99,,2013-03-20 16:03:00,
2013-03-20 09:13:00,53.0,-99.9,29.41,South,171,12.0,20.0,-999,-99.99,,,-99.99,,2013-03-20 16:13:00,
2013-03-20 09:23:00,53.0,-99.9,29.41,SSE,165,12.0,21.0,-999,-99.99,,,-99.99,,2013-03-20 16:23:00,
2013-03-20 09:33:00,53.0,-99.9,29.41,South,180,16.0,25.0,-999,-99.99,,,-99.99,,2013-03-20 16:33:00,
2013-03-20 09:43:00,52.0,-99.9,29.42,South,183,9.0,15.0,-999,-99.99,,,-99.99,,2013-03-20 16:43:00,
2013-03-20 09:53:00,51.0,-99.9,29.44,SW,225,20.0,30.0,-999,-99.99,,,-99.99,,2013-03-20 16:53:00,
2013-03-20 10:03:00,50.0,-99.9,29.46,SW,220,24.0,30.0,-999,-99.99,,,-99.99,,2013-03-20 17:03:00,
2013-03-20 10:12:00,50.0,-99.9,29.48,SW,228,18.0,34.0,-999,-99.99,,,-99.99,,2013-03-20 17:12:00,
2013-03-20 10:22:00,49.0,-99.9,29.48,SSW,195,12.0,26.0,-999,-99.99,,,-99.99,,2013-03-20 17:22:00,
2013-03-20 10:33:00,49.0,-99.9,29.49,SW,214,25.0,34.0,-999,-99.99,,,-99.99,,2013-03-20 17:33:00,
2013-03-20 10:42:00,49.0,-99.9,29.50,SW,222,26.0,31.0,-999,-99.99,,,-99.99,,2013-03-20 17:42:00,
2013-03-20 10:53:00,49.0,-99.9,29.51,SSW,213,26.0,31.0,-999,-99.99,,,-99.99,,2013-03-20 17:53:00,
2013-03-20 11:02:00,49.0,-99.9,29.51,SSW,213,26.0,31.0,-999,-99.99,,,-99.99,,2013-03-20 18:02:00,
2013-03-20 11:12:00,49.0,-99.9,29.53,SW,215,11.0,27.0,-999,-99.99,,,-99.99,,2013-03-20 18:12:00,
2013-03-20 11:22:00,50.0,-99.9,29.54,SSW,198,7.0,18.0,-999,-99.99,,,-99.99,,2013-03-20 18:22:00,
2013-03-20 11:34:00,49.0,-99.9,29.55,SW,217,15.0,32.0,-999,-99.99,,,-99.99,,2013-03-20 18:34:00,
2013-03-20 11:43:00,49.0,-99.9,29.55,SSW,211,19.0,26.0,-999,-99.99,,,-99.99,,2013-03-20 18:43:00,
2013-03-20 11:53:00,49.0,-99.9,29.55,SSW,209,16.0,25.0,-999,-99.99,,,-99.99,,2013-03-20 18:53:00,
2013-03-20 12:02:00,50.0,-99.9,29.56,SSW,212,17.0,22.0,-999,-99.99,,,-99.99,,2013-03-20 19:02:00,
2013-03-20 12:12:00,50.0,-99.9,29.56,SSW,203,17.0,28.0,-999,-99.99,,,-99.99,,2013-03-20 19:12:00,
2013-03-20 12:23:00,50.0,-99.9,29.57,South,191,16.0,27.0,-999,-99.99,,,-99.99,,2013-03-20 19:23:00,
2013-03-20 12:33:00,50.0,-99.9,29.58,SW,220,15.0,28.0,-999,-99.99,,,-99.99,,2013-03-20 19:33:00,
2013-03-20 12:42:00,51.0,-99.9,29.59,SSW,203,5.0,21.0,-999,-99.99,,,-99.99,,2013-03-20 19:42:00,
2013-03-20 12:53:00,50.0,-99.9,29.60,South,177,11.0,20.0,-999,-99.99,,,-99.99,,2013-03-20 19:53:00,
2013-03-20 13:02:00,48.0,-99.9,29.62,SSW,204,10.0,24.0,-999,-99.99,,,-99.99,,2013-03-20 20:02:00,
2013-03-20 13:13:00,47.0,-99.9,29.62,SW,223,23.0,34.0,-999,-99.99,,,-99.99,,2013-03-20 20:13:00,
2013-03-20 13:23:00,47.0,-99.9,29.62,SSW,210,17.0,31.0,-999,-99.99,,,-99.99,,2013-03-20 20:23:00,
2013-03-20 13:32:00,47.0,-99.9,29.62,SW,218,15.0,24.0,-999,-99.99,,,-99.99,,2013-03-20 20:32:00,
2013-03-20 13:43:00,48.0,-99.9,29.63,South,182,11.0,23.0,-999,-99.99,,,-99.99,,2013-03-20 20:43:00,
2013-03-20 13:53:00,48.0,-99.9,29.63,SSW,200,10.0,26.0,-999,-99.99,,,-99.99,,2013-03-20 20:53:00,
2013-03-20 14:02:00,49.0,-99.9,29.64,SSW,211,19.0,33.0,-999,-99.99,,,-99.99,,2013-03-20 21:02:00,
2013-03-20 14:12:00,49.0,-99.9,29.64,SSW,207,13.0,30.0,-999,-99.99,,,-99.99,,2013-03-20 21:12:00,
2013-03-20 14:23:00,49.0,-99.9,29.65,SSW,209,15.0,26.0,-999,-99.99,,,-99.99,,2013-03-20 21:23:00,
2013-03-20 14:33:00,48.0,-99.9,29.65,SW,219,21.0,27.0,-999,-99.99,,,-99.99,,2013-03-20 21:33:00,
2013-03-20 14:42:00,49.0,-99.9,29.65,SSW,208,19.0,27.0,-999,-99.99,,,-99.99,,2013-03-20 21:42:00,
2013-03-20 14:53:00,48.0,-99.9,29.65,SSW,201,13.0,31.0,-999,-99.99,,,-99.99,,2013-03-20 21:53:00,
2013-03-20 15:03:00,48.0,-99.9,29.64,SSW,197,22.0,28.0,-999,-99.99,,,-99.99,,2013-03-20 22:03:00,
2013-03-20 15:13:00,50.0,-99.9,29.64,SSW,197,11.0,26.0,-999,-99.99,,,-99.99,,2013-03-20 22:13:00,
2013-03-20 15:23:00,49.0,-99.9,29.65,SSW,210,5.0,21.0,-999,-99.99,,,-99.99,,2013-03-20 22:23:00,
2013-03-20 15:33:00,48.0,-99.9,29.66,SSW,210,23.0,34.0,-999,-99.99,,,-99.99,,2013-03-20 22:33:00,
2013-03-20 15:43:00,48.0,-99.9,29.67,SW,214,20.0,31.0,-999,-99.99,,,-99.99,,2013-03-20 22:43:00,
2013-03-20 15:53:00,48.0,-99.9,29.67,SSW,212,22.0,29.0,-999,-99.99,,,-99.99,,2013-03-20 22:53:00,
2013-03-20 16:03:00,48.0,-99.9,29.68,SSW,213,23.0,32.0,-999,-99.99,,,-99.99,,2013-03-20 23:03:00,
2013-03-20 16:12:00,48.0,-99.9,29.69,SW,218,24.0,30.0,-999,-99.99,,,-99.99,,2013-03-20 23:12:00,
2013-03-20 16:23:00,48.0,-99.9,29.69,SW,219,17.0,26.0,-999,-99.99,,,-99.99,,2013-03-20 23:23:00,
2013-03-20 16:33:00,49.0,-99.9,29.69,SW,216,11.0,25.0,-999,-99.99,,,-99.99,,2013-03-20 23:33:00,
2013-03-20 16:43:00,49.0,-99.9,29.70,SSW,210,12.0,25.0,-999,-99.99,,,-99.99,,2013-03-20 23:43:00,
2013-03-20 16:53:00,49.0,-99.9,29.70,SW,214,16.0,28.0,-999,-99.99,,,-99.99,,2013-03-20 23:53:00,
2013-03-20 17:03:00,49.0,-99.9,29.72,SW,219,18.0,32.0,-999,-99.99,,,-99.99,,2013-03-21 00:03:00,
2013-03-20 17:13:00,49.0,-99.9,29.73,SW,215,18.0,25.0,-999,-99.99,,,-99.99,,2013-03-21 00:13:00,
2013-03-20 17:23:00,49.0,-99.9,29.73,SSW,210,19.0,30.0,-999,-99.99,,,-99.99,,2013-03-21 00:23:00,
2013-03-20 17:33:00,48.0,-99.9,29.74,SW,214,16.0,22.0,-999,-99.99,,,-99.99,,2013-03-21 00:33:00,
2013-03-20 17:42:00,49.0,-99.9,29.74,SW,229,8.0,16.0,-999,-99.99,,,-99.99,,2013-03-21 00:42:00,
2013-03-20 17:53:00,49.0,-99.9,29.74,SW,222,10.0,18.0,-999,-99.99,,,-99.99,,2013-03-21 00:53:00,
2013-03-20 18:02:00,49.0,-99.9,29.74,South,184,10.0,17.0,-999,-99.99,,,-99.99,,2013-03-21 01:02:00,
2013-03-20 18:12:00,49.0,-99.9,29.74,SSW,195,14.0,19.0,-999,-99.99,,,-99.99,,2013-03-21 01:12:00,
2013-03-20 18:22:00,48.0,-99.9,29.75,SSW,202,17.0,28.0,-999,-99.99,,,-99.99,,2013-03-21 01:22:00,
2013-03-20 18:33:00,47.0,-99.9,29.76,SSW,210,20.0,25.0,-999,-99.99,,,-99.99,,2013-03-21 01:33:00,
2013-03-20 18:42:00,47.0,-99.9,29.77,SW,221,19.0,26.0,-999,-99.99,,,-99.99,,2013-03-21 01:42:00,
2013-03-20 18:53:00,47.0,-99.9,29.78,SSW,213,20.0,27.0,-999,-99.99,,,-99.99,,2013-03-21 01:53:00,
2013-03-20 19:03:00,47.0,-99.9,29.79,SW,216,18.0,30.0,-999,-99.99,,,-99.99,,2013-03-21 02:03:00,
2013-03-20 19:13:00,46.0,-99.9,29.80,SSW,208,13.0,23.0,-999,-99.99,,,-99.99,,2013-03-21 02:13:00,
2013-03-20 19:23:00,46.0,-99.9,29.80,SSW,207,20.0,30.0,-999,-99.99,,,-99.99,,2013-03-21 02:23:00,
2013-03-20 19:33:00,45.0,-99.9,29.81,SW,219,23.0,29.0,-999,-99.99,,,-99.99,,2013-03-21 02:33:00,
2013-03-20 19:42:00,45.0,-99.9,29.81,SW,219,23.0,29.0,-999,-99.99,,,-99.99,,2013-03-21 02:42:00,
2013-03-20 19:52:00,45.0,-99.9,29.81,SW,219,23.0,29.0,-999,-99.99,,,-99.99,,2013-03-21 02:52:00,
2013-03-20 20:02:00,44.0,-99.9,29.84,SSW,205,14.0,24.0,-999,-99.99,,,-99.99,,2013-03-21 03:02:00,
2013-03-20 20:12:00,44.0,-99.9,29.84,SSE,163,6.0,22.0,-999,-99.99,,,-99.99,,2013-03-21 03:12:00,
2013-03-20 20:22:00,44.0,-99.9,29.84,South,174,8.0,23.0,-999,-99.99,,,-99.99,,2013-03-21 03:22:00,
2013-03-20 20:33:00,44.0,-99.9,29.87,SSW,213,16.0,25.0,-999,-99.99,,,-99.99,,2013-03-21 03:33:00,
2013-03-20 20:43:00,43.0,-99.9,29.88,SSW,204,15.0,22.0,-999,-99.99,,,-99.99,,2013-03-21 03:43:00,
2013-03-20 20:53:00,43.0,-99.9,29.88,SSW,207,15.0,24.0,-999,-99.99,,,-99.99,,2013-03-21 03:53:00,
2013-03-20 21:03:00,43.0,-99.9,29.90,SSW,211,16.0,23.0,-999,-99.99,,,-99.99,,2013-03-21 04:03:00,
2013-03-20 21:13:00,43.0,-99.9,29.91,SW,219,14.0,29.0,-999,-99.99,,,-99.99,,2013-03-21 04:13:00,
2013-03-20 21:23:00,43.0,-99.9,29.92,SW,229,17.0,21.0,-999,-99.99,,,-99.99,,2013-03-21 04:23:00,
2013-03-20 21:33:00,43.0,-99.9,29.93,SW,226,14.0,22.0,-999,-99.99,,,-99.99,,2013-03-21 04:33:00,
2013-03-20 21:43:00,43.0,-99.9,29.95,SW,233,12.0,18.0,-999,-99.99,,,-99.99,,2013-03-21 04:43:00,
2013-03-20 21:53:00,42.0,-99.9,29.95,SW,224,9.0,18.0,-999,-99.99,,,-99.99,,2013-03-21 04:53:00,
2013-03-20 22:03:00,42.0,-99.9,29.96,WSW,244,9.0,13.0,-999,-99.99,,,-99.99,,2013-03-21 05:03:00,
2013-03-20 22:13:00,42.0,-99.9,29.98,WSW,250,9.0,12.0,-999,-99.99,,,-99.99,,2013-03-21 05:13:00,
2013-03-20 22:22:00,42.0,-99.9,29.98,WSW,248,9.0,12.0,-999,-99.99,,,-99.99,,2013-03-21 05:22:00,
2013-03-20 22:33:00,42.0,-99.9,29.98,WSW,250,7.0,10.0,-999,-99.99,,,-99.99,,2013-03-21 05:33:00,
2013-03-20 22:44:00,42.0,-99.9,29.99,SW,235,9.0,14.0,-999,-99.99,,,-99.99,,2013-03-21 05:44:00,
2013-03-20 22:52:00,42.0,-99.9,29.99,SW,234,6.0,10.0,-999,-99.99,,,-99.99,,2013-03-21 05:52:00,
2013-03-20 23:03:00,42.0,-99.9,30.01,SW,220,9.0,15.0,-999,-99.99,,,-99.99,,2013-03-21 06:03:00,
2013-03-20 23:12:00,42.0,-99.9,30.01,SW,223,9.0,11.0,-999,-99.99,,,-99.99,,2013-03-21 06:12:00,
2013-03-20 23:23:00,41.0,-99.9,30.01,SW,227,6.0,7.0,-999,-99.99,,,-99.99,,2013-03-21 06:23:00,
2013-03-20 23:32:00,41.0,-99.9,30.02,SSW,210,8.0,14.0,-999,-99.99,,,-99.99,,2013-03-21 06:32:00,
2013-03-20 23:42:00,41.0,-99.9,30.02,South,185,7.0,10.0,-999,-99.99,,,-99.99,,2013-03-21 06:42:00,
2013-03-20 23:52:00,41.0,-99.9,30.03,South,177,6.0,9.0,-999,-99.99,,,-99.99,,2013-03-21 06:52:00,